96D

Walhalla Municipal Airport

Walhalla, North Dakota, USA
METAR K96D 210935Z AUTO 00000KT 10SM CLR 16/16 A2993 RMK AO2
Observed Flight Rules
Jun-21 @ 09:35 UTC (23 minutes ago) Visual Flight Rules
Visibility Clouds
10 miles
  • Clear skies
Temperatures Readings
Current 16°C / 61°F
Dewpoint 16°C / 61°F
Humidity 100%
Altimeter 29.93" Hg
Pressure 1014 hPa
Elevation 290
METAR K96D 210935Z AUTO 00000KT 10SM CLR 16/16 A2993 RMK AO2
Observed Flight Rules
Jun-21 @ 09:35 UTC
(23 minutes ago)
VFR
Clouds
  • Clear skies
Temperature Dewpoint
16°C / 61°F 16°C / 61°F
Humidity Altimeter Pressure
100% 29.93" Hg 1014 hPa